sensor_id;sensor_type;location;lat;lon;timestamp;temperature;humidity
25504;DHT22;13410;52.114;5.718;2022-10-20T00:01:11;12.00;99.90
25504;DHT22;13410;52.114;5.718;2022-10-20T00:03:37;12.10;99.90
25504;DHT22;13410;52.114;5.718;2022-10-20T00:06:14;12.10;99.90
25504;DHT22;13410;52.114;5.718;2022-10-20T00:08:41;12.00;99.90
25504;DHT22;13410;52.114;5.718;2022-10-20T00:11:07;12.00;99.90
25504;DHT22;13410;52.114;5.718;2022-10-20T00:13:33;11.90;99.90
25504;DHT22;13410;52.114;5.718;2022-10-20T00:15:59;11.90;99.90
25504;DHT22;13410;52.114;5.718;2022-10-20T00:18:26;11.80;99.90
25504;DHT22;13410;52.114;5.718;2022-10-20T00:20:52;11.70;99.90
25504;DHT22;13410;52.114;5.718;2022-10-20T00:23:18;11.80;99.90
25504;DHT22;13410;52.114;5.718;2022-10-20T00:25:44;11.70;99.90
25504;DHT22;13410;52.114;5.718;2022-10-20T00:28:09;11.80;99.90
25504;DHT22;13410;52.114;5.718;2022-10-20T00:30:36;11.70;99.90
25504;DHT22;13410;52.114;5.718;2022-10-20T00:33:03;11.80;99.90
25504;DHT22;13410;52.114;5.718;2022-10-20T00:35:30;11.70;99.90
25504;DHT22;13410;52.114;5.718;2022-10-20T00:37:56;11.70;99.90
25504;DHT22;13410;52.114;5.718;2022-10-20T00:40:22;11.70;99.90
25504;DHT22;13410;52.114;5.718;2022-10-20T00:42:48;11.80;99.90
25504;DHT22;13410;52.114;5.718;2022-10-20T00:45:17;11.80;99.90
25504;DHT22;13410;52.114;5.718;2022-10-20T00:47:48;11.80;99.90
25504;DHT22;13410;52.114;5.718;2022-10-20T00:50:25;11.80;99.90
25504;DHT22;13410;52.114;5.718;2022-10-20T00:52:53;11.90;99.90
25504;DHT22;13410;52.114;5.718;2022-10-20T00:55:24;11.90;99.90
25504;DHT22;13410;52.114;5.718;2022-10-20T00:57:51;11.90;99.90
25504;DHT22;13410;52.114;5.718;2022-10-20T01:00:18;11.80;99.90
25504;DHT22;13410;52.114;5.718;2022-10-20T01:02:44;11.90;99.90
25504;DHT22;13410;52.114;5.718;2022-10-20T01:05:11;12.10;99.90
25504;DHT22;13410;52.114;5.718;2022-10-20T01:07:36;12.00;99.90
25504;DHT22;13410;52.114;5.718;2022-10-20T01:10:03;12.00;99.90
25504;DHT22;13410;52.114;5.718;2022-10-20T01:12:38;12.00;99.90
25504;DHT22;13410;52.114;5.718;2022-10-20T01:26:06;11.80;99.90
25504;DHT22;13410;52.114;5.718;2022-10-20T01:28:51;11.70;99.90
25504;DHT22;13410;52.114;5.718;2022-10-20T01:36:48;11.90;99.90
25504;DHT22;13410;52.114;5.718;2022-10-20T01:39:24;11.70;99.90
25504;DHT22;13410;52.114;5.718;2022-10-20T01:41:56;11.60;99.90
25504;DHT22;13410;52.114;5.718;2022-10-20T01:44:25;11.70;99.90
25504;DHT22;13410;52.114;5.718;2022-10-20T01:46:52;11.70;99.90
25504;DHT22;13410;52.114;5.718;2022-10-20T01:49:18;11.70;99.90
25504;DHT22;13410;52.114;5.718;2022-10-20T01:51:44;11.70;99.90
25504;DHT22;13410;52.114;5.718;2022-10-20T01:54:29;11.60;99.90
25504;DHT22;13410;52.114;5.718;2022-10-20T02:00:07;11.70;99.90
25504;DHT22;13410;52.114;5.718;2022-10-20T02:05:29;11.70;99.90
25504;DHT22;13410;52.114;5.718;2022-10-20T02:11:19;11.60;99.90
25504;DHT22;13410;52.114;5.718;2022-10-20T02:13:46;11.60;99.90
25504;DHT22;13410;52.114;5.718;2022-10-20T02:16:20;11.60;99.90
25504;DHT22;13410;52.114;5.718;2022-10-20T02:18:47;11.50;99.90
25504;DHT22;13410;52.114;5.718;2022-10-20T02:21:13;11.50;99.90
25504;DHT22;13410;52.114;5.718;2022-10-20T02:23:43;11.70;99.90
25504;DHT22;13410;52.114;5.718;2022-10-20T02:26:13;11.70;99.90
25504;DHT22;13410;52.114;5.718;2022-10-20T02:28:43;11.70;99.90
25504;DHT22;13410;52.114;5.718;2022-10-20T02:31:10;11.60;99.90
25504;DHT22;13410;52.114;5.718;2022-10-20T02:33:36;11.60;99.90
25504;DHT22;13410;52.114;5.718;2022-10-20T02:36:05;11.70;99.90
25504;DHT22;13410;52.114;5.718;2022-10-20T02:38:30;11.70;99.90
25504;DHT22;13410;52.114;5.718;2022-10-20T02:40:56;11.60;99.90
25504;DHT22;13410;52.114;5.718;2022-10-20T02:43:22;11.70;99.90
25504;DHT22;13410;52.114;5.718;2022-10-20T02:45:47;11.50;99.90
25504;DHT22;13410;52.114;5.718;2022-10-20T02:48:13;11.50;99.90
25504;DHT22;13410;52.114;5.718;2022-10-20T02:50:38;11.60;99.90
25504;DHT22;13410;52.114;5.718;2022-10-20T02:53:04;11.60;99.90
25504;DHT22;13410;52.114;5.718;2022-10-20T02:55:30;11.60;99.90
25504;DHT22;13410;52.114;5.718;2022-10-20T02:57:55;11.70;99.90
25504;DHT22;13410;52.114;5.718;2022-10-20T03:00:22;11.70;99.90
25504;DHT22;13410;52.114;5.718;2022-10-20T03:02:48;11.80;99.90
25504;DHT22;13410;52.114;5.718;2022-10-20T03:05:13;11.70;99.90
25504;DHT22;13410;52.114;5.718;2022-10-20T03:07:39;11.70;99.90
25504;DHT22;13410;52.114;5.718;2022-10-20T03:10:05;11.60;99.90
25504;DHT22;13410;52.114;5.718;2022-10-20T03:12:30;11.60;99.90
25504;DHT22;13410;52.114;5.718;2022-10-20T03:14:56;11.70;99.90
25504;DHT22;13410;52.114;5.718;2022-10-20T03:17:22;11.40;99.90
25504;DHT22;13410;52.114;5.718;2022-10-20T03:19:47;11.40;99.90
25504;DHT22;13410;52.114;5.718;2022-10-20T03:22:13;11.40;99.90
25504;DHT22;13410;52.114;5.718;2022-10-20T03:24:38;11.40;99.90
25504;DHT22;13410;52.114;5.718;2022-10-20T03:27:04;11.40;99.90
25504;DHT22;13410;52.114;5.718;2022-10-20T03:29:30;11.40;99.90
25504;DHT22;13410;52.114;5.718;2022-10-20T03:31:55;11.30;99.90
25504;DHT22;13410;52.114;5.718;2022-10-20T03:34:21;11.40;99.90
25504;DHT22;13410;52.114;5.718;2022-10-20T03:36:46;11.50;99.90
25504;DHT22;13410;52.114;5.718;2022-10-20T03:39:12;11.50;99.90
25504;DHT22;13410;52.114;5.718;2022-10-20T03:41:37;11.50;99.90
25504;DHT22;13410;52.114;5.718;2022-10-20T03:44:03;11.60;99.90
25504;DHT22;13410;52.114;5.718;2022-10-20T03:46:28;11.50;99.90
25504;DHT22;13410;52.114;5.718;2022-10-20T03:48:54;11.40;99.90
25504;DHT22;13410;52.114;5.718;2022-10-20T03:51:19;11.40;99.90
25504;DHT22;13410;52.114;5.718;2022-10-20T03:53:45;11.30;99.90
25504;DHT22;13410;52.114;5.718;2022-10-20T03:56:16;11.30;99.90
25504;DHT22;13410;52.114;5.718;2022-10-20T03:58:42;11.40;99.90
25504;DHT22;13410;52.114;5.718;2022-10-20T04:01:13;11.40;99.90
25504;DHT22;13410;52.114;5.718;2022-10-20T04:03:39;11.50;99.90
25504;DHT22;13410;52.114;5.718;2022-10-20T04:06:04;11.50;99.90
25504;DHT22;13410;52.114;5.718;2022-10-20T04:08:30;11.50;99.90
25504;DHT22;13410;52.114;5.718;2022-10-20T04:10:57;11.40;99.90
25504;DHT22;13410;52.114;5.718;2022-10-20T04:13:23;11.50;99.90
25504;DHT22;13410;52.114;5.718;2022-10-20T04:15:48;11.50;99.90
25504;DHT22;13410;52.114;5.718;2022-10-20T04:18:14;11.50;99.90
25504;DHT22;13410;52.114;5.718;2022-10-20T04:20:39;11.40;99.90
25504;DHT22;13410;52.114;5.718;2022-10-20T04:23:05;11.50;99.90
25504;DHT22;13410;52.114;5.718;2022-10-20T04:25:30;11.40;99.90
25504;DHT22;13410;52.114;5.718;2022-10-20T04:27:58;11.50;99.90
25504;DHT22;13410;52.114;5.718;2022-10-20T04:30:24;11.60;99.90
25504;DHT22;13410;52.114;5.718;2022-10-20T04:32:49;11.60;99.90
25504;DHT22;13410;52.114;5.718;2022-10-20T04:35:15;11.60;99.90
25504;DHT22;13410;52.114;5.718;2022-10-20T04:37:40;11.50;99.90
25504;DHT22;13410;52.114;5.718;2022-10-20T04:40:06;11.50;99.90
25504;DHT22;13410;52.114;5.718;2022-10-20T04:42:32;11.50;99.90
25504;DHT22;13410;52.114;5.718;2022-10-20T04:44:57;11.60;99.90
25504;DHT22;13410;52.114;5.718;2022-10-20T04:47:23;11.50;99.90
25504;DHT22;13410;52.114;5.718;2022-10-20T04:49:48;11.50;99.90
25504;DHT22;13410;52.114;5.718;2022-10-20T04:52:14;11.50;99.90
25504;DHT22;13410;52.114;5.718;2022-10-20T04:54:39;11.50;99.90
25504;DHT22;13410;52.114;5.718;2022-10-20T04:57:05;11.50;99.90
25504;DHT22;13410;52.114;5.718;2022-10-20T04:59:31;11.40;99.90
25504;DHT22;13410;52.114;5.718;2022-10-20T05:01:56;11.50;99.90
25504;DHT22;13410;52.114;5.718;2022-10-20T05:04:22;11.50;99.90
25504;DHT22;13410;52.114;5.718;2022-10-20T05:06:48;11.50;99.90
25504;DHT22;13410;52.114;5.718;2022-10-20T05:09:14;11.40;99.90
25504;DHT22;13410;52.114;5.718;2022-10-20T05:11:41;11.50;99.90
25504;DHT22;13410;52.114;5.718;2022-10-20T05:14:07;11.60;99.90
25504;DHT22;13410;52.114;5.718;2022-10-20T05:16:33;11.50;99.90
25504;DHT22;13410;52.114;5.718;2022-10-20T05:18:58;11.70;99.90
25504;DHT22;13410;52.114;5.718;2022-10-20T05:21:27;11.80;99.90
25504;DHT22;13410;52.114;5.718;2022-10-20T05:24:01;11.80;99.90
25504;DHT22;13410;52.114;5.718;2022-10-20T05:26:28;11.90;99.90
25504;DHT22;13410;52.114;5.718;2022-10-20T05:28:56;11.90;99.90
25504;DHT22;13410;52.114;5.718;2022-10-20T05:31:22;12.00;99.90
25504;DHT22;13410;52.114;5.718;2022-10-20T05:34:11;12.10;99.90
25504;DHT22;13410;52.114;5.718;2022-10-20T05:36:37;12.10;99.90
25504;DHT22;13410;52.114;5.718;2022-10-20T05:39:03;12.10;99.90
25504;DHT22;13410;52.114;5.718;2022-10-20T05:41:31;12.30;99.90
25504;DHT22;13410;52.114;5.718;2022-10-20T05:43:59;12.30;99.90
25504;DHT22;13410;52.114;5.718;2022-10-20T05:46:27;12.40;99.90
25504;DHT22;13410;52.114;5.718;2022-10-20T05:48:55;12.30;99.90
25504;DHT22;13410;52.114;5.718;2022-10-20T05:51:23;12.30;99.90
25504;DHT22;13410;52.114;5.718;2022-10-20T05:53:49;12.30;99.90
25504;DHT22;13410;52.114;5.718;2022-10-20T05:56:18;12.40;99.90
25504;DHT22;13410;52.114;5.718;2022-10-20T05:58:44;12.40;99.90
25504;DHT22;13410;52.114;5.718;2022-10-20T06:04:17;12.60;99.90
25504;DHT22;13410;52.114;5.718;2022-10-20T06:06:42;12.40;99.90
25504;DHT22;13410;52.114;5.718;2022-10-20T06:09:09;12.60;99.90
25504;DHT22;13410;52.114;5.718;2022-10-20T06:11:36;12.60;99.90
25504;DHT22;13410;52.114;5.718;2022-10-20T06:14:02;12.80;99.90
25504;DHT22;13410;52.114;5.718;2022-10-20T06:16:28;12.60;99.90
25504;DHT22;13410;52.114;5.718;2022-10-20T06:18:56;12.70;99.90
25504;DHT22;13410;52.114;5.718;2022-10-20T06:21:27;12.70;99.90
25504;DHT22;13410;52.114;5.718;2022-10-20T06:23:53;12.50;99.90
25504;DHT22;13410;52.114;5.718;2022-10-20T06:26:21;12.30;99.90
25504;DHT22;13410;52.114;5.718;2022-10-20T06:28:50;12.30;99.90
25504;DHT22;13410;52.114;5.718;2022-10-20T06:31:29;12.30;99.90
25504;DHT22;13410;52.114;5.718;2022-10-20T06:33:56;12.50;99.90
25504;DHT22;13410;52.114;5.718;2022-10-20T06:36:23;12.70;99.90
25504;DHT22;13410;52.114;5.718;2022-10-20T06:38:55;12.80;99.90
25504;DHT22;13410;52.114;5.718;2022-10-20T06:41:21;13.00;99.90
25504;DHT22;13410;52.114;5.718;2022-10-20T06:43:47;12.90;99.90
25504;DHT22;13410;52.114;5.718;2022-10-20T06:46:16;13.10;99.90
25504;DHT22;13410;52.114;5.718;2022-10-20T06:48:42;13.00;99.90
25504;DHT22;13410;52.114;5.718;2022-10-20T06:51:14;13.00;99.90
25504;DHT22;13410;52.114;5.718;2022-10-20T06:53:41;13.00;99.90
25504;DHT22;13410;52.114;5.718;2022-10-20T06:56:10;13.00;99.90
25504;DHT22;13410;52.114;5.718;2022-10-20T06:58:38;13.00;99.90
25504;DHT22;13410;52.114;5.718;2022-10-20T07:01:06;12.90;99.90
25504;DHT22;13410;52.114;5.718;2022-10-20T07:03:33;12.80;99.90
25504;DHT22;13410;52.114;5.718;2022-10-20T07:05:59;12.80;99.90
25504;DHT22;13410;52.114;5.718;2022-10-20T07:08:27;12.90;99.90
25504;DHT22;13410;52.114;5.718;2022-10-20T07:11:05;13.00;99.90
25504;DHT22;13410;52.114;5.718;2022-10-20T07:13:32;13.20;99.90
25504;DHT22;13410;52.114;5.718;2022-10-20T07:15:58;13.10;99.90
25504;DHT22;13410;52.114;5.718;2022-10-20T07:18:25;13.00;99.90
25504;DHT22;13410;52.114;5.718;2022-10-20T07:20:55;13.10;99.90
25504;DHT22;13410;52.114;5.718;2022-10-20T07:23:22;13.10;99.90
25504;DHT22;13410;52.114;5.718;2022-10-20T07:25:48;13.10;99.90
25504;DHT22;13410;52.114;5.718;2022-10-20T07:28:13;13.10;99.90
25504;DHT22;13410;52.114;5.718;2022-10-20T07:30:40;13.10;99.90
25504;DHT22;13410;52.114;5.718;2022-10-20T07:33:07;13.10;99.90
25504;DHT22;13410;52.114;5.718;2022-10-20T07:35:33;13.10;99.90
25504;DHT22;13410;52.114;5.718;2022-10-20T07:38:00;13.30;99.90
25504;DHT22;13410;52.114;5.718;2022-10-20T07:40:27;13.30;99.90
25504;DHT22;13410;52.114;5.718;2022-10-20T07:42:53;13.30;99.90
25504;DHT22;13410;52.114;5.718;2022-10-20T07:45:19;13.50;99.90
25504;DHT22;13410;52.114;5.718;2022-10-20T07:47:44;13.60;99.90
25504;DHT22;13410;52.114;5.718;2022-10-20T07:50:10;13.50;99.90
25504;DHT22;13410;52.114;5.718;2022-10-20T07:52:37;13.30;99.90
25504;DHT22;13410;52.114;5.718;2022-10-20T07:55:03;13.50;99.90
25504;DHT22;13410;52.114;5.718;2022-10-20T07:57:29;13.70;99.90
25504;DHT22;13410;52.114;5.718;2022-10-20T07:59:54;13.80;99.90
25504;DHT22;13410;52.114;5.718;2022-10-20T08:02:20;14.00;99.90
25504;DHT22;13410;52.114;5.718;2022-10-20T08:04:48;14.00;99.90
25504;DHT22;13410;52.114;5.718;2022-10-20T08:07:13;14.00;99.90
25504;DHT22;13410;52.114;5.718;2022-10-20T08:09:39;14.00;99.90
25504;DHT22;13410;52.114;5.718;2022-10-20T08:12:04;14.10;99.90
25504;DHT22;13410;52.114;5.718;2022-10-20T08:14:30;14.10;99.90
25504;DHT22;13410;52.114;5.718;2022-10-20T08:16:58;14.00;99.90
25504;DHT22;13410;52.114;5.718;2022-10-20T08:19:24;14.30;99.90
25504;DHT22;13410;52.114;5.718;2022-10-20T08:21:50;14.20;99.90
25504;DHT22;13410;52.114;5.718;2022-10-20T08:24:16;14.40;99.90
25504;DHT22;13410;52.114;5.718;2022-10-20T08:26:41;14.50;99.90
25504;DHT22;13410;52.114;5.718;2022-10-20T08:29:07;14.20;99.90
25504;DHT22;13410;52.114;5.718;2022-10-20T08:31:33;14.30;99.90
25504;DHT22;13410;52.114;5.718;2022-10-20T08:33:58;14.30;99.90
25504;DHT22;13410;52.114;5.718;2022-10-20T08:36:24;14.50;99.90
25504;DHT22;13410;52.114;5.718;2022-10-20T08:38:50;14.80;99.90
25504;DHT22;13410;52.114;5.718;2022-10-20T08:41:19;14.70;99.90
25504;DHT22;13410;52.114;5.718;2022-10-20T08:43:46;14.70;99.90
25504;DHT22;13410;52.114;5.718;2022-10-20T08:46:14;14.70;99.90
25504;DHT22;13410;52.114;5.718;2022-10-20T08:48:41;14.90;99.90
25504;DHT22;13410;52.114;5.718;2022-10-20T08:51:19;15.10;99.90
25504;DHT22;13410;52.114;5.718;2022-10-20T08:53:46;15.20;99.90
25504;DHT22;13410;52.114;5.718;2022-10-20T08:56:14;15.30;99.90
25504;DHT22;13410;52.114;5.718;2022-10-20T08:58:43;15.60;99.90
25504;DHT22;13410;52.114;5.718;2022-10-20T09:01:21;15.70;99.90
25504;DHT22;13410;52.114;5.718;2022-10-20T09:03:55;15.80;99.90
25504;DHT22;13410;52.114;5.718;2022-10-20T09:06:21;15.60;99.90
25504;DHT22;13410;52.114;5.718;2022-10-20T09:08:47;15.70;99.90
25504;DHT22;13410;52.114;5.718;2022-10-20T09:11:16;15.90;99.90
25504;DHT22;13410;52.114;5.718;2022-10-20T09:13:43;15.80;99.90
25504;DHT22;13410;52.114;5.718;2022-10-20T09:16:30;15.90;99.90
25504;DHT22;13410;52.114;5.718;2022-10-20T09:19:02;16.10;99.90
25504;DHT22;13410;52.114;5.718;2022-10-20T09:21:29;16.30;99.90
25504;DHT22;13410;52.114;5.718;2022-10-20T09:24:02;16.30;99.90
25504;DHT22;13410;52.114;5.718;2022-10-20T09:26:44;16.60;99.90
25504;DHT22;13410;52.114;5.718;2022-10-20T09:29:12;16.80;99.90
25504;DHT22;13410;52.114;5.718;2022-10-20T09:31:44;16.80;99.90
25504;DHT22;13410;52.114;5.718;2022-10-20T09:34:27;16.70;99.90
25504;DHT22;13410;52.114;5.718;2022-10-20T09:37:14;16.80;99.90
25504;DHT22;13410;52.114;5.718;2022-10-20T09:39:47;16.70;99.90
25504;DHT22;13410;52.114;5.718;2022-10-20T09:42:27;16.70;99.90
25504;DHT22;13410;52.114;5.718;2022-10-20T09:45:00;16.80;99.90
25504;DHT22;13410;52.114;5.718;2022-10-20T09:47:27;16.60;99.90
25504;DHT22;13410;52.114;5.718;2022-10-20T09:49:59;16.60;99.90
25504;DHT22;13410;52.114;5.718;2022-10-20T09:52:31;17.00;99.90
25504;DHT22;13410;52.114;5.718;2022-10-20T09:55:45;17.00;99.90
25504;DHT22;13410;52.114;5.718;2022-10-20T09:58:28;16.80;99.90
25504;DHT22;13410;52.114;5.718;2022-10-20T10:01:15;16.60;99.90
25504;DHT22;13410;52.114;5.718;2022-10-20T10:03:46;16.80;99.90
25504;DHT22;13410;52.114;5.718;2022-10-20T10:08:49;17.30;99.90
25504;DHT22;13410;52.114;5.718;2022-10-20T10:11:17;17.30;99.90
25504;DHT22;13410;52.114;5.718;2022-10-20T10:13:48;17.50;99.90
25504;DHT22;13410;52.114;5.718;2022-10-20T10:16:22;17.50;99.90
25504;DHT22;13410;52.114;5.718;2022-10-20T10:19:01;17.60;99.90
25504;DHT22;13410;52.114;5.718;2022-10-20T10:21:50;17.60;99.90
25504;DHT22;13410;52.114;5.718;2022-10-20T10:24:39;17.50;99.90
25504;DHT22;13410;52.114;5.718;2022-10-20T10:27:29;17.50;99.90
25504;DHT22;13410;52.114;5.718;2022-10-20T10:30:17;17.30;99.90
25504;DHT22;13410;52.114;5.718;2022-10-20T10:32:46;17.50;99.90
25504;DHT22;13410;52.114;5.718;2022-10-20T10:35:31;17.80;99.90
25504;DHT22;13410;52.114;5.718;2022-10-20T10:37:59;17.80;99.90
25504;DHT22;13410;52.114;5.718;2022-10-20T10:40:34;17.90;99.90
25504;DHT22;13410;52.114;5.718;2022-10-20T10:46:02;17.60;99.90
25504;DHT22;13410;52.114;5.718;2022-10-20T11:00:18;17.70;99.90
25504;DHT22;13410;52.114;5.718;2022-10-20T11:06:02;17.70;99.90
25504;DHT22;13410;52.114;5.718;2022-10-20T11:11:28;17.50;99.90
25504;DHT22;13410;52.114;5.718;2022-10-20T11:16:54;17.60;99.90
25504;DHT22;13410;52.114;5.718;2022-10-20T11:27:37;17.30;99.90
25504;DHT22;13410;52.114;5.718;2022-10-20T11:30:15;17.50;99.90
25504;DHT22;13410;52.114;5.718;2022-10-20T11:40:42;17.50;99.90
25504;DHT22;13410;52.114;5.718;2022-10-20T11:49:05;17.20;99.90
25504;DHT22;13410;52.114;5.718;2022-10-20T11:59:17;17.10;99.90
25504;DHT22;13410;52.114;5.718;2022-10-20T12:02:14;17.00;99.90
25504;DHT22;13410;52.114;5.718;2022-10-20T12:05:11;17.00;99.90
25504;DHT22;13410;52.114;5.718;2022-10-20T12:10:38;17.00;99.90
25504;DHT22;13410;52.114;5.718;2022-10-20T12:16:09;16.90;99.90
25504;DHT22;13410;52.114;5.718;2022-10-20T12:18:35;16.90;99.90
25504;DHT22;13410;52.114;5.718;2022-10-20T12:21:04;17.00;99.90
25504;DHT22;13410;52.114;5.718;2022-10-20T12:28:56;16.90;99.90
25504;DHT22;13410;52.114;5.718;2022-10-20T12:31:22;16.90;99.90
25504;DHT22;13410;52.114;5.718;2022-10-20T12:39:06;16.90;99.90
25504;DHT22;13410;52.114;5.718;2022-10-20T12:41:34;16.90;99.90
25504;DHT22;13410;52.114;5.718;2022-10-20T12:44:05;17.00;99.90
25504;DHT22;13410;52.114;5.718;2022-10-20T12:46:34;17.00;99.90
25504;DHT22;13410;52.114;5.718;2022-10-20T12:49:04;17.10;99.90
25504;DHT22;13410;52.114;5.718;2022-10-20T12:51:38;17.20;99.90
25504;DHT22;13410;52.114;5.718;2022-10-20T12:54:21;17.50;99.90
25504;DHT22;13410;52.114;5.718;2022-10-20T12:56:49;17.60;99.90
25504;DHT22;13410;52.114;5.718;2022-10-20T13:04:59;18.00;99.90
25504;DHT22;13410;52.114;5.718;2022-10-20T13:12:51;17.80;99.90
25504;DHT22;13410;52.114;5.718;2022-10-20T13:15:18;17.70;99.90
25504;DHT22;13410;52.114;5.718;2022-10-20T13:23:15;18.00;99.90
25504;DHT22;13410;52.114;5.718;2022-10-20T13:25:43;18.00;99.90
25504;DHT22;13410;52.114;5.718;2022-10-20T13:31:01;17.90;99.90
25504;DHT22;13410;52.114;5.718;2022-10-20T13:33:41;17.90;99.90
25504;DHT22;13410;52.114;5.718;2022-10-20T13:36:22;17.80;99.90
25504;DHT22;13410;52.114;5.718;2022-10-20T13:47:33;17.50;99.90
25504;DHT22;13410;52.114;5.718;2022-10-20T13:50:09;17.70;99.90
25504;DHT22;13410;52.114;5.718;2022-10-20T13:52:51;17.70;99.90
25504;DHT22;13410;52.114;5.718;2022-10-20T13:55:22;17.80;99.90
25504;DHT22;13410;52.114;5.718;2022-10-20T13:57:56;17.90;99.90
25504;DHT22;13410;52.114;5.718;2022-10-20T14:00:27;18.10;99.90
25504;DHT22;13410;52.114;5.718;2022-10-20T14:03:02;18.10;99.90
25504;DHT22;13410;52.114;5.718;2022-10-20T14:05:35;18.10;99.90
25504;DHT22;13410;52.114;5.718;2022-10-20T14:08:01;18.40;99.90
25504;DHT22;13410;52.114;5.718;2022-10-20T14:10:47;18.70;99.90
25504;DHT22;13410;52.114;5.718;2022-10-20T14:13:15;18.70;99.90
25504;DHT22;13410;52.114;5.718;2022-10-20T14:15:54;19.10;99.90
25504;DHT22;13410;52.114;5.718;2022-10-20T14:18:34;19.30;99.90
25504;DHT22;13410;52.114;5.718;2022-10-20T14:21:14;19.50;99.90
25504;DHT22;13410;52.114;5.718;2022-10-20T14:23:42;19.50;99.90
25504;DHT22;13410;52.114;5.718;2022-10-20T14:26:20;19.40;99.90
25504;DHT22;13410;52.114;5.718;2022-10-20T14:28:49;19.30;99.90
25504;DHT22;13410;52.114;5.718;2022-10-20T14:31:20;19.30;99.90
25504;DHT22;13410;52.114;5.718;2022-10-20T14:33:47;19.30;99.90
25504;DHT22;13410;52.114;5.718;2022-10-20T14:36:25;19.30;99.90
25504;DHT22;13410;52.114;5.718;2022-10-20T14:38:53;19.30;99.90
25504;DHT22;13410;52.114;5.718;2022-10-20T14:44:01;19.60;99.90
25504;DHT22;13410;52.114;5.718;2022-10-20T14:46:31;19.60;99.90
25504;DHT22;13410;52.114;5.718;2022-10-20T14:48:58;19.90;99.90
25504;DHT22;13410;52.114;5.718;2022-10-20T14:51:38;20.00;99.90
25504;DHT22;13410;52.114;5.718;2022-10-20T14:56:56;20.00;99.90
25504;DHT22;13410;52.114;5.718;2022-10-20T14:59:24;20.00;99.90
25504;DHT22;13410;52.114;5.718;2022-10-20T15:02:11;20.00;99.90
25504;DHT22;13410;52.114;5.718;2022-10-20T15:04:42;19.90;99.90
25504;DHT22;13410;52.114;5.718;2022-10-20T15:07:21;19.90;99.90
25504;DHT22;13410;52.114;5.718;2022-10-20T15:09:49;19.80;99.90
25504;DHT22;13410;52.114;5.718;2022-10-20T15:12:32;19.80;99.90
25504;DHT22;13410;52.114;5.718;2022-10-20T15:22:55;19.80;99.90
25504;DHT22;13410;52.114;5.718;2022-10-20T15:25:22;19.70;99.90
25504;DHT22;13410;52.114;5.718;2022-10-20T15:27:48;19.60;99.90
25504;DHT22;13410;52.114;5.718;2022-10-20T15:30:19;19.50;99.90
25504;DHT22;13410;52.114;5.718;2022-10-20T15:32:45;19.40;99.90
25504;DHT22;13410;52.114;5.718;2022-10-20T15:35:17;19.20;99.90
25504;DHT22;13410;52.114;5.718;2022-10-20T15:37:48;19.10;99.90
25504;DHT22;13410;52.114;5.718;2022-10-20T15:40:14;19.00;99.90
25504;DHT22;13410;52.114;5.718;2022-10-20T15:42:39;18.90;99.90
25504;DHT22;13410;52.114;5.718;2022-10-20T15:45:24;18.90;99.90
25504;DHT22;13410;52.114;5.718;2022-10-20T15:47:49;18.70;99.90
25504;DHT22;13410;52.114;5.718;2022-10-20T15:50:16;18.80;99.90
25504;DHT22;13410;52.114;5.718;2022-10-20T15:52:41;18.80;99.90
25504;DHT22;13410;52.114;5.718;2022-10-20T15:55:27;18.70;99.90
25504;DHT22;13410;52.114;5.718;2022-10-20T15:57:53;18.70;99.90
25504;DHT22;13410;52.114;5.718;2022-10-20T16:00:21;18.60;99.90
25504;DHT22;13410;52.114;5.718;2022-10-20T16:02:48;18.60;99.90
25504;DHT22;13410;52.114;5.718;2022-10-20T16:05:14;18.60;99.90
25504;DHT22;13410;52.114;5.718;2022-10-20T16:07:41;18.60;99.90
25504;DHT22;13410;52.114;5.718;2022-10-20T16:10:08;18.70;99.90
25504;DHT22;13410;52.114;5.718;2022-10-20T16:12:34;18.60;99.90
25504;DHT22;13410;52.114;5.718;2022-10-20T16:15:00;18.60;99.90
25504;DHT22;13410;52.114;5.718;2022-10-20T16:17:25;18.70;99.90
25504;DHT22;13410;52.114;5.718;2022-10-20T16:19:51;18.60;99.90
25504;DHT22;13410;52.114;5.718;2022-10-20T16:22:16;18.50;99.90
25504;DHT22;13410;52.114;5.718;2022-10-20T16:24:42;18.60;99.90
25504;DHT22;13410;52.114;5.718;2022-10-20T16:27:08;18.50;99.90
25504;DHT22;13410;52.114;5.718;2022-10-20T16:29:33;18.20;99.90
25504;DHT22;13410;52.114;5.718;2022-10-20T16:31:59;18.00;99.90
25504;DHT22;13410;52.114;5.718;2022-10-20T16:34:26;18.00;99.90
25504;DHT22;13410;52.114;5.718;2022-10-20T16:36:52;18.00;99.90
25504;DHT22;13410;52.114;5.718;2022-10-20T16:39:17;18.00;99.90
25504;DHT22;13410;52.114;5.718;2022-10-20T16:41:44;17.90;99.90
25504;DHT22;13410;52.114;5.718;2022-10-20T16:44:10;18.00;99.90
25504;DHT22;13410;52.114;5.718;2022-10-20T16:46:36;17.90;99.90
25504;DHT22;13410;52.114;5.718;2022-10-20T16:49:02;17.70;99.90
25504;DHT22;13410;52.114;5.718;2022-10-20T16:51:28;17.70;99.90
25504;DHT22;13410;52.114;5.718;2022-10-20T16:53:54;17.80;99.90
25504;DHT22;13410;52.114;5.718;2022-10-20T16:56:19;17.80;99.90
25504;DHT22;13410;52.114;5.718;2022-10-20T16:58:45;17.90;99.90
25504;DHT22;13410;52.114;5.718;2022-10-20T17:01:12;17.70;99.90
25504;DHT22;13410;52.114;5.718;2022-10-20T17:03:44;17.70;99.90
25504;DHT22;13410;52.114;5.718;2022-10-20T17:06:11;17.60;99.90
25504;DHT22;13410;52.114;5.718;2022-10-20T17:08:36;17.60;99.90
25504;DHT22;13410;52.114;5.718;2022-10-20T17:11:08;17.50;99.90
25504;DHT22;13410;52.114;5.718;2022-10-20T17:13:35;17.60;99.90
25504;DHT22;13410;52.114;5.718;2022-10-20T17:16:15;17.60;99.90
25504;DHT22;13410;52.114;5.718;2022-10-20T17:18:41;17.70;99.90
25504;DHT22;13410;52.114;5.718;2022-10-20T17:21:07;17.60;99.90
25504;DHT22;13410;52.114;5.718;2022-10-20T17:23:35;17.70;99.90
25504;DHT22;13410;52.114;5.718;2022-10-20T17:26:02;17.50;99.90
25504;DHT22;13410;52.114;5.718;2022-10-20T17:28:28;17.60;99.90
25504;DHT22;13410;52.114;5.718;2022-10-20T17:30:54;17.70;99.90
25504;DHT22;13410;52.114;5.718;2022-10-20T17:33:25;17.70;99.90
25504;DHT22;13410;52.114;5.718;2022-10-20T17:35:52;17.60;99.90
25504;DHT22;13410;52.114;5.718;2022-10-20T17:38:19;17.40;99.90
25504;DHT22;13410;52.114;5.718;2022-10-20T17:40:44;17.40;99.90
25504;DHT22;13410;52.114;5.718;2022-10-20T17:43:11;17.60;99.90
25504;DHT22;13410;52.114;5.718;2022-10-20T17:45:37;17.60;99.90
25504;DHT22;13410;52.114;5.718;2022-10-20T17:48:03;17.60;99.90
25504;DHT22;13410;52.114;5.718;2022-10-20T17:50:29;17.50;99.90
25504;DHT22;13410;52.114;5.718;2022-10-20T17:52:56;17.40;99.90
25504;DHT22;13410;52.114;5.718;2022-10-20T17:55:23;17.30;99.90
25504;DHT22;13410;52.114;5.718;2022-10-20T17:57:49;17.50;99.90
25504;DHT22;13410;52.114;5.718;2022-10-20T18:00:14;17.40;99.90
25504;DHT22;13410;52.114;5.718;2022-10-20T18:02:48;17.40;99.90
25504;DHT22;13410;52.114;5.718;2022-10-20T18:05:14;17.40;99.90